sensor_id;sensor_type;location;lat;lon;timestamp;pressure;altitude;pressure_sealevel;temperature;humidity
5455;BME280;2750;49.050;9.250;2023-03-31T00:02:15;98135.69;;;14.42;79.65
5455;BME280;2750;49.050;9.250;2023-03-31T00:07:22;98137.28;;;14.32;80.02
5455;BME280;2750;49.050;9.250;2023-03-31T00:12:24;98133.84;;;14.31;80.30
5455;BME280;2750;49.050;9.250;2023-03-31T00:17:25;98125.56;;;14.14;80.36
5455;BME280;2750;49.050;9.250;2023-03-31T00:22:28;98115.66;;;14.43;79.65
5455;BME280;2750;49.050;9.250;2023-03-31T00:27:30;98100.59;;;14.46;79.67
5455;BME280;2750;49.050;9.250;2023-03-31T00:32:33;98097.31;;;14.31;79.61
5455;BME280;2750;49.050;9.250;2023-03-31T00:37:36;98081.88;;;14.05;80.37
5455;BME280;2750;49.050;9.250;2023-03-31T00:42:39;98063.78;;;13.91;80.85
5455;BME280;2750;49.050;9.250;2023-03-31T00:47:41;98064.03;;;13.75;80.56
5455;BME280;2750;49.050;9.250;2023-03-31T00:52:46;98049.50;;;13.83;80.92
5455;BME280;2750;49.050;9.250;2023-03-31T00:57:50;98044.91;;;13.87;80.44
5455;BME280;2750;49.050;9.250;2023-03-31T01:02:57;98035.84;;;14.04;80.39
5455;BME280;2750;49.050;9.250;2023-03-31T01:08:03;98029.59;;;14.06;80.19
5455;BME280;2750;49.050;9.250;2023-03-31T01:13:07;98034.41;;;14.00;80.90
5455;BME280;2750;49.050;9.250;2023-03-31T01:18:10;98013.78;;;14.31;79.61
5455;BME280;2750;49.050;9.250;2023-03-31T01:29:06;98007.72;;;13.96;79.97
5455;BME280;2750;49.050;9.250;2023-03-31T01:34:43;98002.09;;;14.13;79.57
5455;BME280;2750;49.050;9.250;2023-03-31T01:40:00;97998.94;;;14.21;79.20
5455;BME280;2750;49.050;9.250;2023-03-31T01:45:17;97984.63;;;14.38;79.23
5455;BME280;2750;49.050;9.250;2023-03-31T01:50:25;97984.31;;;14.53;78.91
5455;BME280;2750;49.050;9.250;2023-03-31T01:55:34;97976.38;;;14.44;78.52
5455;BME280;2750;49.050;9.250;2023-03-31T02:00:40;97979.91;;;14.43;76.77
5455;BME280;2750;49.050;9.250;2023-03-31T02:05:46;97989.94;;;14.71;76.59
5455;BME280;2750;49.050;9.250;2023-03-31T02:10:51;97990.13;;;14.46;77.77
5455;BME280;2750;49.050;9.250;2023-03-31T02:15:56;97992.63;;;14.47;78.15
5455;BME280;2750;49.050;9.250;2023-03-31T02:21:00;97971.81;;;14.34;77.91
5455;BME280;2750;49.050;9.250;2023-03-31T02:26:07;97961.91;;;14.51;77.15
5455;BME280;2750;49.050;9.250;2023-03-31T02:31:20;97958.22;;;14.64;77.38
5455;BME280;2750;49.050;9.250;2023-03-31T02:36:24;97943.28;;;14.44;78.00
5455;BME280;2750;49.050;9.250;2023-03-31T02:41:27;97943.19;;;14.68;77.53
5455;BME280;2750;49.050;9.250;2023-03-31T02:46:29;97934.38;;;14.69;77.19
5455;BME280;2750;49.050;9.250;2023-03-31T02:57:26;97910.28;;;14.08;79.96
5455;BME280;2750;49.050;9.250;2023-03-31T03:02:38;97887.53;;;14.10;79.34
5455;BME280;2750;49.050;9.250;2023-03-31T03:07:46;97860.69;;;14.43;78.64
5455;BME280;2750;49.050;9.250;2023-03-31T03:12:56;97827.66;;;14.87;76.90
5455;BME280;2750;49.050;9.250;2023-03-31T03:17:59;97808.41;;;14.88;77.33
5455;BME280;2750;49.050;9.250;2023-03-31T03:23:01;97789.22;;;14.66;78.11
5455;BME280;2750;49.050;9.250;2023-03-31T03:28:04;97777.47;;;15.04;77.43
5455;BME280;2750;49.050;9.250;2023-03-31T03:33:06;97767.25;;;15.12;76.54
5455;BME280;2750;49.050;9.250;2023-03-31T03:38:07;97761.69;;;14.62;78.64
5455;BME280;2750;49.050;9.250;2023-03-31T03:43:10;97771.69;;;15.00;77.19
5455;BME280;2750;49.050;9.250;2023-03-31T03:48:12;97760.72;;;14.74;77.79
5455;BME280;2750;49.050;9.250;2023-03-31T03:53:14;97737.06;;;14.76;77.99
5455;BME280;2750;49.050;9.250;2023-03-31T03:58:17;97707.09;;;14.70;77.42
5455;BME280;2750;49.050;9.250;2023-03-31T04:03:19;97699.66;;;14.87;77.56
5455;BME280;2750;49.050;9.250;2023-03-31T04:08:20;97677.78;;;14.67;78.55
5455;BME280;2750;49.050;9.250;2023-03-31T04:13:23;97681.97;;;14.58;78.26
5455;BME280;2750;49.050;9.250;2023-03-31T04:18:25;97666.94;;;14.28;79.69
5455;BME280;2750;49.050;9.250;2023-03-31T04:23:26;97681.00;;;14.59;78.90
5455;BME280;2750;49.050;9.250;2023-03-31T04:28:31;97685.03;;;14.63;78.93
5455;BME280;2750;49.050;9.250;2023-03-31T04:33:34;97657.75;;;14.56;79.44
5455;BME280;2750;49.050;9.250;2023-03-31T04:38:37;97636.78;;;14.47;78.94
5455;BME280;2750;49.050;9.250;2023-03-31T04:43:41;97636.00;;;14.24;80.43
5455;BME280;2750;49.050;9.250;2023-03-31T04:48:42;97636.00;;;14.24;80.32
5455;BME280;2750;49.050;9.250;2023-03-31T04:53:44;97621.63;;;14.18;80.24
5455;BME280;2750;49.050;9.250;2023-03-31T04:58:47;97615.25;;;14.11;81.13
5455;BME280;2750;49.050;9.250;2023-03-31T05:03:48;97606.16;;;14.06;81.42
5455;BME280;2750;49.050;9.250;2023-03-31T05:08:50;97617.03;;;14.11;80.64
5455;BME280;2750;49.050;9.250;2023-03-31T05:13:53;97613.50;;;14.01;81.26
5455;BME280;2750;49.050;9.250;2023-03-31T05:18:54;97607.09;;;14.05;82.27
5455;BME280;2750;49.050;9.250;2023-03-31T05:23:56;97626.44;;;13.80;83.54
5455;BME280;2750;49.050;9.250;2023-03-31T05:28:59;97628.22;;;13.68;85.08
5455;BME280;2750;49.050;9.250;2023-03-31T05:34:01;97632.66;;;13.57;86.01
5455;BME280;2750;49.050;9.250;2023-03-31T05:39:03;97641.88;;;13.04;89.38
5455;BME280;2750;49.050;9.250;2023-03-31T05:44:06;97661.25;;;12.88;91.08
5455;BME280;2750;49.050;9.250;2023-03-31T05:49:07;97637.63;;;12.91;91.88
5455;BME280;2750;49.050;9.250;2023-03-31T05:54:10;97616.63;;;12.82;92.96
5455;BME280;2750;49.050;9.250;2023-03-31T05:59:13;97609.44;;;12.97;92.87
5455;BME280;2750;49.050;9.250;2023-03-31T06:04:15;97599.19;;;13.06;92.53
5455;BME280;2750;49.050;9.250;2023-03-31T06:09:17;97578.72;;;13.13;92.59
5455;BME280;2750;49.050;9.250;2023-03-31T06:14:20;97570.44;;;13.19;93.35
5455;BME280;2750;49.050;9.250;2023-03-31T06:19:21;97558.59;;;13.15;93.06
5455;BME280;2750;49.050;9.250;2023-03-31T06:24:24;97545.78;;;13.01;93.75
5455;BME280;2750;49.050;9.250;2023-03-31T06:29:34;97530.22;;;12.66;95.42
5455;BME280;2750;49.050;9.250;2023-03-31T06:34:36;97517.38;;;13.09;94.43
5455;BME280;2750;49.050;9.250;2023-03-31T06:39:38;97529.66;;;12.84;95.66
5455;BME280;2750;49.050;9.250;2023-03-31T06:44:41;97555.09;;;12.81;96.32
5455;BME280;2750;49.050;9.250;2023-03-31T06:49:42;97552.97;;;12.86;95.73
5455;BME280;2750;49.050;9.250;2023-03-31T06:54:44;97530.97;;;12.33;98.00
5455;BME280;2750;49.050;9.250;2023-03-31T06:59:47;97540.69;;;12.42;98.68
5455;BME280;2750;49.050;9.250;2023-03-31T07:04:48;97560.53;;;12.32;99.66
5455;BME280;2750;49.050;9.250;2023-03-31T07:09:50;97548.13;;;12.35;99.77
5455;BME280;2750;49.050;9.250;2023-03-31T07:14:53;97554.25;;;12.34;99.76
5455;BME280;2750;49.050;9.250;2023-03-31T07:19:55;97538.81;;;12.09;100.00
5455;BME280;2750;49.050;9.250;2023-03-31T07:24:58;97433.69;;;12.46;99.33
5455;BME280;2750;49.050;9.250;2023-03-31T07:30:01;97418.22;;;12.56;99.00
5455;BME280;2750;49.050;9.250;2023-03-31T07:35:03;97471.88;;;12.57;99.55
5455;BME280;2750;49.050;9.250;2023-03-31T07:40:06;97485.44;;;13.18;97.93
5455;BME280;2750;49.050;9.250;2023-03-31T07:45:10;97480.44;;;12.92;98.31
5455;BME280;2750;49.050;9.250;2023-03-31T07:50:12;97477.50;;;13.19;97.15
5455;BME280;2750;49.050;9.250;2023-03-31T07:55:14;97471.66;;;13.38;96.81
5455;BME280;2750;49.050;9.250;2023-03-31T08:00:18;97489.13;;;13.69;97.17
5455;BME280;2750;49.050;9.250;2023-03-31T08:05:20;97477.50;;;14.05;95.32
5455;BME280;2750;49.050;9.250;2023-03-31T08:10:24;97464.66;;;14.34;94.67
5455;BME280;2750;49.050;9.250;2023-03-31T08:15:27;97460.97;;;15.08;92.04
5455;BME280;2750;49.050;9.250;2023-03-31T08:20:29;97468.38;;;17.14;85.59
5455;BME280;2750;49.050;9.250;2023-03-31T08:25:31;97461.28;;;16.22;84.87
5455;BME280;2750;49.050;9.250;2023-03-31T08:30:35;97461.03;;;17.73;80.33
5455;BME280;2750;49.050;9.250;2023-03-31T08:35:37;97447.00;;;17.37;79.52
5455;BME280;2750;49.050;9.250;2023-03-31T08:40:40;97444.56;;;16.42;81.15
5455;BME280;2750;49.050;9.250;2023-03-31T08:45:45;97447.13;;;15.86;84.12
5455;BME280;2750;49.050;9.250;2023-03-31T08:50:51;97437.16;;;16.18;82.91
5455;BME280;2750;49.050;9.250;2023-03-31T08:55:56;97432.38;;;17.61;79.78
5455;BME280;2750;49.050;9.250;2023-03-31T09:01:04;97405.94;;;18.85;75.98
5455;BME280;2750;49.050;9.250;2023-03-31T09:06:12;97405.28;;;18.14;77.11
5455;BME280;2750;49.050;9.250;2023-03-31T09:11:25;97401.53;;;18.60;75.94
5455;BME280;2750;49.050;9.250;2023-03-31T09:16:37;97413.13;;;17.71;78.64
5455;BME280;2750;49.050;9.250;2023-03-31T09:21:43;97422.66;;;17.44;79.64
5455;BME280;2750;49.050;9.250;2023-03-31T09:26:50;97413.38;;;17.32;77.35
5455;BME280;2750;49.050;9.250;2023-03-31T09:31:55;97385.00;;;15.98;78.19
5455;BME280;2750;49.050;9.250;2023-03-31T09:37:01;97368.09;;;16.85;76.26
5455;BME280;2750;49.050;9.250;2023-03-31T09:42:03;97378.69;;;18.09;74.96
5455;BME280;2750;49.050;9.250;2023-03-31T09:47:11;97374.66;;;17.61;70.19
5455;BME280;2750;49.050;9.250;2023-03-31T09:52:20;97374.59;;;18.14;69.32
5455;BME280;2750;49.050;9.250;2023-03-31T09:57:25;97369.41;;;18.23;67.84
5455;BME280;2750;49.050;9.250;2023-03-31T10:02:34;97358.91;;;16.99;68.64
5455;BME280;2750;49.050;9.250;2023-03-31T10:07:37;97358.63;;;16.75;68.66
5455;BME280;2750;49.050;9.250;2023-03-31T10:12:38;97417.34;;;16.82;68.79
5455;BME280;2750;49.050;9.250;2023-03-31T10:17:43;97402.69;;;14.47;75.61
5455;BME280;2750;49.050;9.250;2023-03-31T10:22:45;97438.88;;;13.35;82.79
5455;BME280;2750;49.050;9.250;2023-03-31T10:27:51;97400.91;;;13.00;89.77
5455;BME280;2750;49.050;9.250;2023-03-31T10:32:55;97408.09;;;13.61;87.52
5455;BME280;2750;49.050;9.250;2023-03-31T10:38:00;97366.72;;;14.51;84.24
5455;BME280;2750;49.050;9.250;2023-03-31T10:43:08;97376.28;;;14.71;81.29
5455;BME280;2750;49.050;9.250;2023-03-31T10:48:23;97358.94;;;15.10;78.53
5455;BME280;2750;49.050;9.250;2023-03-31T10:53:25;97357.19;;;14.40;78.80
5455;BME280;2750;49.050;9.250;2023-03-31T10:58:36;97347.47;;;14.92;75.28
5455;BME280;2750;49.050;9.250;2023-03-31T11:03:57;97343.69;;;16.01;75.82
5455;BME280;2750;49.050;9.250;2023-03-31T11:09:16;97315.13;;;17.09;73.60
5455;BME280;2750;49.050;9.250;2023-03-31T11:14:27;97308.19;;;18.22;69.40
5455;BME280;2750;49.050;9.250;2023-03-31T11:19:41;97312.28;;;18.50;69.37
5455;BME280;2750;49.050;9.250;2023-03-31T11:25:01;97354.38;;;17.18;70.15
5455;BME280;2750;49.050;9.250;2023-03-31T11:30:09;97408.50;;;12.58;92.32
5455;BME280;2750;49.050;9.250;2023-03-31T11:35:31;97397.34;;;12.12;91.86
5455;BME280;2750;49.050;9.250;2023-03-31T11:40:48;97387.69;;;12.25;89.83
5455;BME280;2750;49.050;9.250;2023-03-31T11:45:59;97403.09;;;12.72;86.84
5455;BME280;2750;49.050;9.250;2023-03-31T11:51:04;97409.91;;;13.18;84.20
5455;BME280;2750;49.050;9.250;2023-03-31T11:56:10;97368.28;;;13.70;81.96
5455;BME280;2750;49.050;9.250;2023-03-31T12:01:17;97383.16;;;14.00;81.72
5455;BME280;2750;49.050;9.250;2023-03-31T12:06:23;97383.59;;;14.77;81.69
5455;BME280;2750;49.050;9.250;2023-03-31T12:11:31;97386.84;;;15.19;78.76
5455;BME280;2750;49.050;9.250;2023-03-31T12:16:38;97375.19;;;15.42;77.97
5455;BME280;2750;49.050;9.250;2023-03-31T12:21:47;97383.13;;;15.02;78.55
5455;BME280;2750;49.050;9.250;2023-03-31T12:26:57;97367.91;;;16.13;75.20
5455;BME280;2750;49.050;9.250;2023-03-31T12:32:05;97367.97;;;16.40;73.70
5455;BME280;2750;49.050;9.250;2023-03-31T12:37:38;97360.66;;;16.34;75.34
5455;BME280;2750;49.050;9.250;2023-03-31T12:43:07;97352.22;;;16.50;73.58
5455;BME280;2750;49.050;9.250;2023-03-31T12:48:42;97340.75;;;16.88;72.70
5455;BME280;2750;49.050;9.250;2023-03-31T12:53:59;97327.50;;;16.25;73.33
5455;BME280;2750;49.050;9.250;2023-03-31T12:59:17;97318.19;;;16.13;69.98
5455;BME280;2750;49.050;9.250;2023-03-31T13:04:20;97299.94;;;15.46;71.35
5455;BME280;2750;49.050;9.250;2023-03-31T13:09:46;97310.69;;;15.14;71.65
5455;BME280;2750;49.050;9.250;2023-03-31T13:14:52;97307.88;;;14.96;75.21
5455;BME280;2750;49.050;9.250;2023-03-31T13:20:17;97317.22;;;14.99;77.51
5455;BME280;2750;49.050;9.250;2023-03-31T13:25:34;97293.97;;;16.01;75.58
5455;BME280;2750;49.050;9.250;2023-03-31T13:30:47;97280.19;;;15.99;72.28
5455;BME280;2750;49.050;9.250;2023-03-31T13:35:52;97292.69;;;16.52;69.78
5455;BME280;2750;49.050;9.250;2023-03-31T13:41:12;97289.22;;;16.24;69.53
5455;BME280;2750;49.050;9.250;2023-03-31T13:46:41;97308.78;;;16.20;70.89
5455;BME280;2750;49.050;9.250;2023-03-31T13:51:53;97303.91;;;15.98;71.22
5455;BME280;2750;49.050;9.250;2023-03-31T13:57:23;97305.41;;;16.74;68.75
5455;BME280;2750;49.050;9.250;2023-03-31T14:02:41;97277.69;;;16.07;68.73
5455;BME280;2750;49.050;9.250;2023-03-31T14:07:45;97282.66;;;16.75;69.28
5455;BME280;2750;49.050;9.250;2023-03-31T14:12:50;97264.56;;;16.99;68.42
5455;BME280;2750;49.050;9.250;2023-03-31T14:17:52;97253.75;;;17.02;67.45
5455;BME280;2750;49.050;9.250;2023-03-31T14:23:02;97244.03;;;16.94;67.70
5455;BME280;2750;49.050;9.250;2023-03-31T14:28:17;97255.94;;;16.34;67.80
5455;BME280;2750;49.050;9.250;2023-03-31T14:33:31;97252.28;;;16.17;69.26
5455;BME280;2750;49.050;9.250;2023-03-31T14:38:35;97236.47;;;16.73;67.70
5455;BME280;2750;49.050;9.250;2023-03-31T14:43:45;97239.59;;;17.30;66.10
5455;BME280;2750;49.050;9.250;2023-03-31T14:48:49;97242.75;;;16.63;66.41
5455;BME280;2750;49.050;9.250;2023-03-31T14:53:55;97230.34;;;16.55;68.72
5455;BME280;2750;49.050;9.250;2023-03-31T14:58:59;97237.69;;;16.97;66.52
5455;BME280;2750;49.050;9.250;2023-03-31T15:04:05;97230.19;;;17.02;66.64
5455;BME280;2750;49.050;9.250;2023-03-31T15:09:13;97224.41;;;16.81;68.30
5455;BME280;2750;49.050;9.250;2023-03-31T15:14:18;97206.59;;;17.19;66.04
5455;BME280;2750;49.050;9.250;2023-03-31T15:19:22;97219.78;;;16.75;66.31
5455;BME280;2750;49.050;9.250;2023-03-31T15:24:24;97224.44;;;16.53;69.18
5455;BME280;2750;49.050;9.250;2023-03-31T15:29:31;97207.19;;;16.06;68.14
5455;BME280;2750;49.050;9.250;2023-03-31T15:34:35;97217.16;;;16.47;68.60
5455;BME280;2750;49.050;9.250;2023-03-31T15:39:38;97210.78;;;16.95;67.82
5455;BME280;2750;49.050;9.250;2023-03-31T15:44:45;97204.72;;;16.77;68.36
5455;BME280;2750;49.050;9.250;2023-03-31T15:49:50;97208.19;;;16.59;69.02
5455;BME280;2750;49.050;9.250;2023-03-31T15:54:53;97210.94;;;16.48;68.57
5455;BME280;2750;49.050;9.250;2023-03-31T15:59:57;97201.38;;;16.39;70.09
5455;BME280;2750;49.050;9.250;2023-03-31T16:04:59;97237.53;;;15.89;73.74
5455;BME280;2750;49.050;9.250;2023-03-31T16:10:04;97239.13;;;15.34;77.38
5455;BME280;2750;49.050;9.250;2023-03-31T16:15:13;97230.22;;;15.08;75.15
5455;BME280;2750;49.050;9.250;2023-03-31T16:20:18;97233.38;;;15.30;73.67
5455;BME280;2750;49.050;9.250;2023-03-31T16:25:23;97234.34;;;15.20;72.73
5455;BME280;2750;49.050;9.250;2023-03-31T16:30:34;97238.75;;;15.19;71.78
5455;BME280;2750;49.050;9.250;2023-03-31T16:35:37;97240.94;;;15.24;72.26
5455;BME280;2750;49.050;9.250;2023-03-31T16:40:41;97247.25;;;14.73;72.04
5455;BME280;2750;49.050;9.250;2023-03-31T16:45:46;97247.31;;;14.43;72.69
5455;BME280;2750;49.050;9.250;2023-03-31T16:50:49;97252.47;;;14.64;72.00
5455;BME280;2750;49.050;9.250;2023-03-31T16:55:51;97248.81;;;14.46;72.11
5455;BME280;2750;49.050;9.250;2023-03-31T17:00:54;97253.13;;;14.26;71.17
5455;BME280;2750;49.050;9.250;2023-03-31T17:05:56;97241.84;;;14.16;71.20
5455;BME280;2750;49.050;9.250;2023-03-31T17:11:00;97270.09;;;14.11;71.20
5455;BME280;2750;49.050;9.250;2023-03-31T17:16:04;97281.59;;;13.99;73.07
5455;BME280;2750;49.050;9.250;2023-03-31T17:21:07;97251.28;;;11.95;82.84
5455;BME280;2750;49.050;9.250;2023-03-31T17:26:10;97325.56;;;11.52;91.75
5455;BME280;2750;49.050;9.250;2023-03-31T17:31:15;97300.03;;;11.46;93.35
5455;BME280;2750;49.050;9.250;2023-03-31T17:36:17;97319.19;;;11.45;94.47
5455;BME280;2750;49.050;9.250;2023-03-31T17:41:18;97330.00;;;11.39;94.21
5455;BME280;2750;49.050;9.250;2023-03-31T17:46:22;97324.59;;;11.77;93.37
5455;BME280;2750;49.050;9.250;2023-03-31T17:51:23;97359.69;;;11.71;93.89
5455;BME280;2750;49.050;9.250;2023-03-31T17:56:26;97391.59;;;10.89;97.13
5455;BME280;2750;49.050;9.250;2023-03-31T18:01:29;97388.41;;;10.73;100.00
5455;BME280;2750;49.050;9.250;2023-03-31T18:06:31;97374.88;;;10.57;100.00
5455;BME280;2750;49.050;9.250;2023-03-31T18:11:32;97330.59;;;11.08;100.00
5455;BME280;2750;49.050;9.250;2023-03-31T18:16:35;97338.25;;;11.33;98.78
5455;BME280;2750;49.050;9.250;2023-03-31T18:21:37;97352.91;;;11.34;98.64
5455;BME280;2750;49.050;9.250;2023-03-31T18:26:38;97359.63;;;11.60;97.01
5455;BME280;2750;49.050;9.250;2023-03-31T18:31:42;97345.81;;;11.71;97.11
5455;BME280;2750;49.050;9.250;2023-03-31T18:36:43;97336.50;;;11.68;97.02
5455;BME280;2750;49.050;9.250;2023-03-31T18:41:46;97339.09;;;11.68;95.83
5455;BME280;2750;49.050;9.250;2023-03-31T18:46:50;97338.09;;;11.58;95.47
5455;BME280;2750;49.050;9.250;2023-03-31T18:51:51;97341.47;;;11.36;95.81
5455;BME280;2750;49.050;9.250;2023-03-31T18:56:53;97354.53;;;11.35;95.77
5455;BME280;2750;49.050;9.250;2023-03-31T19:01:56;97356.56;;;11.42;95.30
5455;BME280;2750;49.050;9.250;2023-03-31T19:06:57;97361.53;;;11.11;94.55
5455;BME280;2750;49.050;9.250;2023-03-31T19:11:59;97363.16;;;11.35;94.78
5455;BME280;2750;49.050;9.250;2023-03-31T19:17:02;97363.25;;;11.23;94.08
5455;BME280;2750;49.050;9.250;2023-03-31T19:22:04;97351.91;;;11.24;94.11
5455;BME280;2750;49.050;9.250;2023-03-31T19:27:06;97350.41;;;11.32;93.54
5455;BME280;2750;49.050;9.250;2023-03-31T19:32:09;97343.09;;;11.26;93.86
5455;BME280;2750;49.050;9.250;2023-03-31T19:37:11;97344.88;;;11.37;93.79
5455;BME280;2750;49.050;9.250;2023-03-31T19:42:12;97348.03;;;11.53;92.87
5455;BME280;2750;49.050;9.250;2023-03-31T19:47:16;97343.50;;;11.44;93.59
5455;BME280;2750;49.050;9.250;2023-03-31T19:52:18;97348.69;;;11.44;93.97
5455;BME280;2750;49.050;9.250;2023-03-31T19:57:19;97337.72;;;11.75;92.76
5455;BME280;2750;49.050;9.250;2023-03-31T20:02:22;97352.38;;;11.76;93.17
5455;BME280;2750;49.050;9.250;2023-03-31T20:07:24;97378.47;;;11.51;93.37
5455;BME280;2750;49.050;9.250;2023-03-31T20:12:26;97362.50;;;11.21;94.65
5455;BME280;2750;49.050;9.250;2023-03-31T20:17:28;97363.63;;;11.06;93.60
5455;BME280;2750;49.050;9.250;2023-03-31T20:22:30;97375.50;;;11.21;94.14
5455;BME280;2750;49.050;9.250;2023-03-31T20:27:32;97379.34;;;11.39;93.17
5455;BME280;2750;49.050;9.250;2023-03-31T20:32:37;97369.75;;;11.76;92.35
5455;BME280;2750;49.050;9.250;2023-03-31T20:37:38;97370.56;;;11.76;92.42
5455;BME280;2750;49.050;9.250;2023-03-31T20:42:40;97360.84;;;12.24;90.71
5455;BME280;2750;49.050;9.250;2023-03-31T20:47:43;97362.59;;;12.02;91.59
5455;BME280;2750;49.050;9.250;2023-03-31T20:52:45;97362.19;;;11.73;92.62
5455;BME280;2750;49.050;9.250;2023-03-31T20:57:47;97353.47;;;11.96;91.12
5455;BME280;2750;49.050;9.250;2023-03-31T21:02:50;97367.97;;;11.76;91.88
5455;BME280;2750;49.050;9.250;2023-03-31T21:07:51;97364.44;;;11.88;91.44
5455;BME280;2750;49.050;9.250;2023-03-31T21:12:53;97363.50;;;11.66;91.40
5455;BME280;2750;49.050;9.250;2023-03-31T21:17:56;97364.44;;;11.54;91.95
5455;BME280;2750;49.050;9.250;2023-03-31T21:22:58;97372.06;;;11.44;92.78
5455;BME280;2750;49.050;9.250;2023-03-31T21:28:00;97370.69;;;11.86;91.26
5455;BME280;2750;49.050;9.250;2023-03-31T21:33:02;97364.97;;;12.16;89.93
5455;BME280;2750;49.050;9.250;2023-03-31T21:38:04;97369.81;;;12.20;89.27
5455;BME280;2750;49.050;9.250;2023-03-31T21:43:06;97367.13;;;12.33;89.46
5455;BME280;2750;49.050;9.250;2023-03-31T21:48:10;97371.63;;;11.85;90.94
5455;BME280;2750;49.050;9.250;2023-03-31T21:53:12;97370.81;;;11.84;90.52
5455;BME280;2750;49.050;9.250;2023-03-31T21:58:13;97372.44;;;11.74;91.10
5455;BME280;2750;49.050;9.250;2023-03-31T22:03:16;97375.34;;;11.70;91.38
5455;BME280;2750;49.050;9.250;2023-03-31T22:08:18;97376.97;;;11.36;91.97
5455;BME280;2750;49.050;9.250;2023-03-31T22:13:21;97367.97;;;11.52;92.78
5455;BME280;2750;49.050;9.250;2023-03-31T22:18:24;97368.53;;;11.45;92.64
5455;BME280;2750;49.050;9.250;2023-03-31T22:23:25;97376.72;;;11.28;92.08
5455;BME280;2750;49.050;9.250;2023-03-31T22:28:27;97379.25;;;11.40;91.82
5455;BME280;2750;49.050;9.250;2023-03-31T22:33:30;97382.41;;;11.80;91.25
5455;BME280;2750;49.050;9.250;2023-03-31T22:38:32;97383.47;;;11.65;90.61
5455;BME280;2750;49.050;9.250;2023-03-31T22:43:33;97374.16;;;11.97;88.82
5455;BME280;2750;49.050;9.250;2023-03-31T22:48:36;97392.59;;;11.71;89.61
5455;BME280;2750;49.050;9.250;2023-03-31T22:53:38;97383.75;;;11.73;89.78
5455;BME280;2750;49.050;9.250;2023-03-31T22:58:40;97387.19;;;11.74;89.35
5455;BME280;2750;49.050;9.250;2023-03-31T23:03:44;97387.47;;;11.58;89.69
5455;BME280;2750;49.050;9.250;2023-03-31T23:08:46;97385.00;;;11.80;89.50
5455;BME280;2750;49.050;9.250;2023-03-31T23:13:49;97379.00;;;11.67;89.48
5455;BME280;2750;49.050;9.250;2023-03-31T23:18:53;97372.88;;;11.68;88.62
5455;BME280;2750;49.050;9.250;2023-03-31T23:23:57;97375.16;;;11.49;90.41
5455;BME280;2750;49.050;9.250;2023-03-31T23:29:00;97372.91;;;11.21;90.15
5455;BME280;2750;49.050;9.250;2023-03-31T23:34:03;97380.47;;;11.24;90.21
5455;BME280;2750;49.050;9.250;2023-03-31T23:39:06;97374.06;;;11.17;89.77
5455;BME280;2750;49.050;9.250;2023-03-31T23:44:07;97385.41;;;11.50;90.04
5455;BME280;2750;49.050;9.250;2023-03-31T23:49:11;97368.34;;;11.59;88.62
5455;BME280;2750;49.050;9.250;2023-03-31T23:54:12;97378.91;;;11.69;88.19
5455;BME280;2750;49.050;9.250;2023-03-31T23:59:14;97381.94;;;11.39;89.36
